sensor_id;sensor_type;location;lat;lon;timestamp;pressure;altitude;pressure_sealevel;temperature;humidity
74790;BME280;63318;52.406;13.416;2023-12-28T00:01:25;100780.92;;;3.41;87.35
74790;BME280;63318;52.406;13.416;2023-12-28T00:03:53;100773.83;;;3.45;87.43
74790;BME280;63318;52.406;13.416;2023-12-28T00:06:22;100772.70;;;3.47;87.37
74790;BME280;63318;52.406;13.416;2023-12-28T00:08:50;100771.59;;;3.50;87.26
74790;BME280;63318;52.406;13.416;2023-12-28T00:11:18;100770.69;;;3.51;87.23
74790;BME280;63318;52.406;13.416;2023-12-28T00:13:47;100765.14;;;3.51;87.24
74790;BME280;63318;52.406;13.416;2023-12-28T00:16:15;100754.37;;;3.53;87.20
74790;BME280;63318;52.406;13.416;2023-12-28T00:18:44;100741.76;;;3.53;87.25
74790;BME280;63318;52.406;13.416;2023-12-28T00:21:12;100729.08;;;3.54;87.27
74790;BME280;63318;52.406;13.416;2023-12-28T00:23:40;100726.86;;;3.55;87.30
74790;BME280;63318;52.406;13.416;2023-12-28T00:26:08;100733.30;;;3.56;87.23
74790;BME280;63318;52.406;13.416;2023-12-28T00:28:37;100732.16;;;3.56;87.18
74790;BME280;63318;52.406;13.416;2023-12-28T00:31:05;100720.27;;;3.56;87.19
74790;BME280;63318;52.406;13.416;2023-12-28T00:33:33;100724.83;;;3.57;87.14
74790;BME280;63318;52.406;13.416;2023-12-28T00:36:02;100730.27;;;3.56;87.28
74790;BME280;63318;52.406;13.416;2023-12-28T00:38:30;100729.59;;;3.54;87.18
74790;BME280;63318;52.406;13.416;2023-12-28T00:40:58;100721.02;;;3.52;87.32
74790;BME280;63318;52.406;13.416;2023-12-28T00:43:27;100714.95;;;3.51;87.19
74790;BME280;63318;52.406;13.416;2023-12-28T00:45:55;100707.99;;;3.50;87.17
74790;BME280;63318;52.406;13.416;2023-12-28T00:48:23;100708.64;;;3.49;87.27
74790;BME280;63318;52.406;13.416;2023-12-28T00:50:52;100711.89;;;3.50;87.20
74790;BME280;63318;52.406;13.416;2023-12-28T00:53:20;100714.23;;;3.51;87.23
74790;BME280;63318;52.406;13.416;2023-12-28T00:55:50;100719.13;;;3.53;87.40
74790;BME280;63318;52.406;13.416;2023-12-28T00:58:18;100709.19;;;3.53;87.24
74790;BME280;63318;52.406;13.416;2023-12-28T01:00:46;100708.52;;;3.53;87.19
74790;BME280;63318;52.406;13.416;2023-12-28T01:03:15;100706.80;;;3.52;87.24
74790;BME280;63318;52.406;13.416;2023-12-28T01:05:43;100695.52;;;3.52;87.19
74790;BME280;63318;52.406;13.416;2023-12-28T01:08:11;100699.61;;;3.51;87.18
74790;BME280;63318;52.406;13.416;2023-12-28T01:10:40;100714.73;;;3.52;87.36
74790;BME280;63318;52.406;13.416;2023-12-28T01:13:08;100719.91;;;3.54;87.29
74790;BME280;63318;52.406;13.416;2023-12-28T01:15:36;100722.55;;;3.56;87.33
74790;BME280;63318;52.406;13.416;2023-12-28T01:18:05;100714.91;;;3.58;87.31
74790;BME280;63318;52.406;13.416;2023-12-28T01:20:34;100714.31;;;3.60;87.23
74790;BME280;63318;52.406;13.416;2023-12-28T01:23:02;100722.83;;;3.61;87.16
74790;BME280;63318;52.406;13.416;2023-12-28T01:25:31;100733.71;;;3.65;87.12
74790;BME280;63318;52.406;13.416;2023-12-28T01:27:59;100724.32;;;3.71;87.08
74790;BME280;63318;52.406;13.416;2023-12-28T01:30:30;100724.61;;;3.75;87.04
74790;BME280;63318;52.406;13.416;2023-12-28T01:32:58;100721.18;;;3.78;87.02
74790;BME280;63318;52.406;13.416;2023-12-28T01:35:26;100718.89;;;3.81;86.91
74790;BME280;63318;52.406;13.416;2023-12-28T01:37:54;100710.80;;;3.84;86.71
74790;BME280;63318;52.406;13.416;2023-12-28T01:40:23;100715.28;;;3.87;86.72
74790;BME280;63318;52.406;13.416;2023-12-28T01:42:51;100720.34;;;3.91;86.75
74790;BME280;63318;52.406;13.416;2023-12-28T01:45:19;100723.70;;;3.95;86.62
74790;BME280;63318;52.406;13.416;2023-12-28T01:47:49;100722.84;;;3.99;86.51
74790;BME280;63318;52.406;13.416;2023-12-28T01:50:18;100702.96;;;4.02;86.55
74790;BME280;63318;52.406;13.416;2023-12-28T01:52:48;100696.96;;;4.05;86.52
74790;BME280;63318;52.406;13.416;2023-12-28T01:55:17;100686.77;;;4.09;86.34
74790;BME280;63318;52.406;13.416;2023-12-28T01:57:47;100682.30;;;4.12;86.21
74790;BME280;63318;52.406;13.416;2023-12-28T02:00:16;100682.17;;;4.14;86.03
74790;BME280;63318;52.406;13.416;2023-12-28T02:02:45;100682.45;;;4.14;86.16
74790;BME280;63318;52.406;13.416;2023-12-28T02:05:15;100676.73;;;4.16;86.08
74790;BME280;63318;52.406;13.416;2023-12-28T02:07:43;100656.34;;;4.17;85.86
74790;BME280;63318;52.406;13.416;2023-12-28T02:10:12;100665.17;;;4.19;85.88
74790;BME280;63318;52.406;13.416;2023-12-28T02:12:40;100645.00;;;4.22;85.84
74790;BME280;63318;52.406;13.416;2023-12-28T02:15:10;100633.73;;;4.23;85.69
74790;BME280;63318;52.406;13.416;2023-12-28T02:17:43;100641.65;;;4.26;85.59
74790;BME280;63318;52.406;13.416;2023-12-28T02:20:14;100671.36;;;4.27;85.74
74790;BME280;63318;52.406;13.416;2023-12-28T02:22:43;100688.04;;;4.31;85.62
74790;BME280;63318;52.406;13.416;2023-12-28T02:25:11;100688.84;;;4.37;85.30
74790;BME280;63318;52.406;13.416;2023-12-28T02:27:42;100683.61;;;4.45;85.12
74790;BME280;63318;52.406;13.416;2023-12-28T02:30:12;100683.77;;;4.53;85.05
74790;BME280;63318;52.406;13.416;2023-12-28T02:32:49;100683.45;;;4.60;84.97
74790;BME280;63318;52.406;13.416;2023-12-28T02:35:26;100683.98;;;4.68;84.73
74790;BME280;63318;52.406;13.416;2023-12-28T02:38:01;100692.45;;;4.76;84.27
74790;BME280;63318;52.406;13.416;2023-12-28T02:40:33;100692.16;;;4.82;84.25
74790;BME280;63318;52.406;13.416;2023-12-28T02:43:04;100685.03;;;4.88;84.24
74790;BME280;63318;52.406;13.416;2023-12-28T02:45:33;100688.91;;;4.91;83.79
74790;BME280;63318;52.406;13.416;2023-12-28T02:48:01;100683.34;;;4.96;83.94
74790;BME280;63318;52.406;13.416;2023-12-28T02:50:30;100680.05;;;5.00;83.62
74790;BME280;63318;52.406;13.416;2023-12-28T02:52:59;100680.63;;;5.04;83.64
74790;BME280;63318;52.406;13.416;2023-12-28T02:55:27;100685.23;;;5.08;83.53
74790;BME280;63318;52.406;13.416;2023-12-28T02:57:57;100689.23;;;5.14;83.17
74790;BME280;63318;52.406;13.416;2023-12-28T03:00:26;100685.20;;;5.18;83.05
74790;BME280;63318;52.406;13.416;2023-12-28T03:02:55;100673.45;;;5.25;82.22
74790;BME280;63318;52.406;13.416;2023-12-28T03:05:24;100674.88;;;5.34;82.01
74790;BME280;63318;52.406;13.416;2023-12-28T03:07:52;100676.11;;;5.43;81.35
74790;BME280;63318;52.406;13.416;2023-12-28T03:10:20;100676.89;;;5.51;81.61
74790;BME280;63318;52.406;13.416;2023-12-28T03:12:48;100684.27;;;5.58;81.30
74790;BME280;63318;52.406;13.416;2023-12-28T03:15:17;100682.58;;;5.67;81.14
74790;BME280;63318;52.406;13.416;2023-12-28T03:17:46;100686.13;;;5.76;80.81
74790;BME280;63318;52.406;13.416;2023-12-28T03:20:14;100683.61;;;5.82;81.18
74790;BME280;63318;52.406;13.416;2023-12-28T03:22:42;100674.95;;;5.86;80.99
74790;BME280;63318;52.406;13.416;2023-12-28T03:25:11;100669.39;;;5.88;80.80
74790;BME280;63318;52.406;13.416;2023-12-28T03:27:39;100668.53;;;5.95;79.61
74790;BME280;63318;52.406;13.416;2023-12-28T03:30:10;100664.79;;;6.10;78.66
74790;BME280;63318;52.406;13.416;2023-12-28T03:32:39;100668.30;;;6.25;78.11
74790;BME280;63318;52.406;13.416;2023-12-28T03:35:08;100670.79;;;6.36;77.85
74790;BME280;63318;52.406;13.416;2023-12-28T03:37:36;100667.28;;;6.46;77.46
74790;BME280;63318;52.406;13.416;2023-12-28T03:40:06;100675.36;;;6.53;78.16
74790;BME280;63318;52.406;13.416;2023-12-28T03:42:34;100685.44;;;6.59;77.89
74790;BME280;63318;52.406;13.416;2023-12-28T03:45:03;100684.84;;;6.62;77.94
74790;BME280;63318;52.406;13.416;2023-12-28T03:47:31;100688.00;;;6.67;78.20
74790;BME280;63318;52.406;13.416;2023-12-28T03:50:00;100683.66;;;6.70;77.73
74790;BME280;63318;52.406;13.416;2023-12-28T03:52:28;100691.27;;;6.73;78.28
74790;BME280;63318;52.406;13.416;2023-12-28T03:54:57;100692.81;;;6.74;78.05
74790;BME280;63318;52.406;13.416;2023-12-28T03:57:26;100703.50;;;6.75;78.38
74790;BME280;63318;52.406;13.416;2023-12-28T03:59:54;100699.30;;;6.75;78.64
74790;BME280;63318;52.406;13.416;2023-12-28T04:02:23;100697.91;;;6.75;78.46
74790;BME280;63318;52.406;13.416;2023-12-28T04:04:51;100701.77;;;6.74;78.35
74790;BME280;63318;52.406;13.416;2023-12-28T04:07:19;100693.41;;;6.76;78.16
74790;BME280;63318;52.406;13.416;2023-12-28T04:09:47;100693.66;;;6.78;78.52
74790;BME280;63318;52.406;13.416;2023-12-28T04:12:16;100691.88;;;6.80;78.50
74790;BME280;63318;52.406;13.416;2023-12-28T04:14:44;100688.33;;;6.82;77.14
74790;BME280;63318;52.406;13.416;2023-12-28T04:17:12;100688.05;;;6.86;77.60
74790;BME280;63318;52.406;13.416;2023-12-28T04:19:41;100686.01;;;6.88;77.45
74790;BME280;63318;52.406;13.416;2023-12-28T04:22:09;100691.39;;;6.90;77.65
74790;BME280;63318;52.406;13.416;2023-12-28T04:24:38;100696.73;;;6.93;77.00
74790;BME280;63318;52.406;13.416;2023-12-28T04:27:06;100703.23;;;6.96;77.42
74790;BME280;63318;52.406;13.416;2023-12-28T04:29:36;100700.50;;;6.98;77.23
74790;BME280;63318;52.406;13.416;2023-12-28T04:32:05;100704.27;;;7.01;76.03
74790;BME280;63318;52.406;13.416;2023-12-28T04:34:33;100700.83;;;7.04;76.50
74790;BME280;63318;52.406;13.416;2023-12-28T04:37:01;100702.61;;;7.05;76.44
74790;BME280;63318;52.406;13.416;2023-12-28T04:39:30;100704.92;;;7.08;76.49
74790;BME280;63318;52.406;13.416;2023-12-28T04:41:58;100703.05;;;7.09;76.51
74790;BME280;63318;52.406;13.416;2023-12-28T04:44:26;100703.02;;;7.10;77.08
74790;BME280;63318;52.406;13.416;2023-12-28T04:46:55;100695.33;;;7.12;76.90
74790;BME280;63318;52.406;13.416;2023-12-28T04:49:23;100693.59;;;7.15;76.67
74790;BME280;63318;52.406;13.416;2023-12-28T04:51:51;100702.42;;;7.17;76.56
74790;BME280;63318;52.406;13.416;2023-12-28T04:54:20;100705.55;;;7.20;75.68
74790;BME280;63318;52.406;13.416;2023-12-28T04:56:48;100711.89;;;7.23;75.68
74790;BME280;63318;52.406;13.416;2023-12-28T04:59:16;100718.34;;;7.25;75.34
74790;BME280;63318;52.406;13.416;2023-12-28T05:01:45;100717.42;;;7.26;75.62
74790;BME280;63318;52.406;13.416;2023-12-28T05:04:13;100714.48;;;7.29;75.36
74790;BME280;63318;52.406;13.416;2023-12-28T05:06:41;100720.35;;;7.30;75.67
74790;BME280;63318;52.406;13.416;2023-12-28T05:09:10;100723.17;;;7.34;75.58
74790;BME280;63318;52.406;13.416;2023-12-28T05:11:38;100722.98;;;7.36;75.30
74790;BME280;63318;52.406;13.416;2023-12-28T05:14:07;100727.79;;;7.39;75.21
74790;BME280;63318;52.406;13.416;2023-12-28T05:16:35;100730.39;;;7.43;75.24
74790;BME280;63318;52.406;13.416;2023-12-28T05:19:04;100734.27;;;7.44;75.80
74790;BME280;63318;52.406;13.416;2023-12-28T05:21:32;100734.35;;;7.46;75.21
74790;BME280;63318;52.406;13.416;2023-12-28T05:24:00;100738.01;;;7.47;75.31
74790;BME280;63318;52.406;13.416;2023-12-28T05:26:29;100742.98;;;7.46;75.30
74790;BME280;63318;52.406;13.416;2023-12-28T05:28:57;100747.23;;;7.46;75.29
74790;BME280;63318;52.406;13.416;2023-12-28T05:31:26;100742.30;;;7.46;74.81
74790;BME280;63318;52.406;13.416;2023-12-28T05:33:54;100749.20;;;7.48;74.96
74790;BME280;63318;52.406;13.416;2023-12-28T05:36:23;100747.45;;;7.49;75.25
74790;BME280;63318;52.406;13.416;2023-12-28T05:38:51;100742.21;;;7.51;75.48
74790;BME280;63318;52.406;13.416;2023-12-28T05:41:19;100753.41;;;7.52;75.15
74790;BME280;63318;52.406;13.416;2023-12-28T05:43:47;100759.48;;;7.52;75.48
74790;BME280;63318;52.406;13.416;2023-12-28T05:46:16;100757.27;;;7.52;75.68
74790;BME280;63318;52.406;13.416;2023-12-28T05:48:44;100758.49;;;7.53;75.53
74790;BME280;63318;52.406;13.416;2023-12-28T05:51:12;100770.00;;;7.52;75.40
74790;BME280;63318;52.406;13.416;2023-12-28T05:53:41;100769.88;;;7.53;75.29
74790;BME280;63318;52.406;13.416;2023-12-28T05:56:10;100774.54;;;7.53;75.61
74790;BME280;63318;52.406;13.416;2023-12-28T05:58:38;100784.65;;;7.53;75.58
74790;BME280;63318;52.406;13.416;2023-12-28T06:01:06;100781.33;;;7.52;75.68
74790;BME280;63318;52.406;13.416;2023-12-28T06:03:35;100783.47;;;7.51;75.30
74790;BME280;63318;52.406;13.416;2023-12-28T06:06:03;100785.92;;;7.50;76.17
74790;BME280;63318;52.406;13.416;2023-12-28T06:08:31;100789.55;;;7.48;75.81
74790;BME280;63318;52.406;13.416;2023-12-28T06:11:00;100793.94;;;7.46;75.78
74790;BME280;63318;52.406;13.416;2023-12-28T06:13:28;100798.06;;;7.45;76.00
74790;BME280;63318;52.406;13.416;2023-12-28T06:15:56;100802.92;;;7.44;76.05
74790;BME280;63318;52.406;13.416;2023-12-28T06:18:24;100807.35;;;7.44;76.03
74790;BME280;63318;52.406;13.416;2023-12-28T06:20:54;100807.48;;;7.43;76.06
74790;BME280;63318;52.406;13.416;2023-12-28T06:23:23;100801.17;;;7.42;76.21
74790;BME280;63318;52.406;13.416;2023-12-28T06:25:51;100800.48;;;7.43;75.87
74790;BME280;63318;52.406;13.416;2023-12-28T06:28:19;100805.79;;;7.44;76.19
74790;BME280;63318;52.406;13.416;2023-12-28T06:30:47;100807.91;;;7.45;75.88
74790;BME280;63318;52.406;13.416;2023-12-28T06:33:16;100806.69;;;7.44;76.18
74790;BME280;63318;52.406;13.416;2023-12-28T06:35:45;100802.33;;;7.45;75.93
74790;BME280;63318;52.406;13.416;2023-12-28T06:38:13;100797.86;;;7.45;75.72
74790;BME280;63318;52.406;13.416;2023-12-28T06:40:41;100795.88;;;7.47;76.07
74790;BME280;63318;52.406;13.416;2023-12-28T06:43:09;100799.37;;;7.46;75.72
74790;BME280;63318;52.406;13.416;2023-12-28T06:45:37;100788.30;;;7.46;76.32
74790;BME280;63318;52.406;13.416;2023-12-28T06:48:06;100796.51;;;7.47;76.15
74790;BME280;63318;52.406;13.416;2023-12-28T06:50:35;100804.36;;;7.47;75.98
74790;BME280;63318;52.406;13.416;2023-12-28T06:53:04;100804.48;;;7.49;75.96
74790;BME280;63318;52.406;13.416;2023-12-28T06:55:32;100803.05;;;7.49;75.92
74790;BME280;63318;52.406;13.416;2023-12-28T06:58:00;100806.52;;;7.48;76.18
74790;BME280;63318;52.406;13.416;2023-12-28T07:00:29;100808.48;;;7.46;76.09
74790;BME280;63318;52.406;13.416;2023-12-28T07:02:57;100811.66;;;7.44;76.32
74790;BME280;63318;52.406;13.416;2023-12-28T07:05:25;100812.71;;;7.42;76.25
74790;BME280;63318;52.406;13.416;2023-12-28T07:07:54;100815.67;;;7.40;76.21
74790;BME280;63318;52.406;13.416;2023-12-28T07:10:22;100813.77;;;7.40;76.39
74790;BME280;63318;52.406;13.416;2023-12-28T07:12:51;100815.27;;;7.39;76.51
74790;BME280;63318;52.406;13.416;2023-12-28T07:15:20;100814.22;;;7.39;76.47
74790;BME280;63318;52.406;13.416;2023-12-28T07:17:48;100817.58;;;7.39;76.44
74790;BME280;63318;52.406;13.416;2023-12-28T07:20:17;100823.16;;;7.39;76.59
74790;BME280;63318;52.406;13.416;2023-12-28T07:22:45;100819.77;;;7.37;76.82
74790;BME280;63318;52.406;13.416;2023-12-28T07:25:13;100824.22;;;7.36;76.54
74790;BME280;63318;52.406;13.416;2023-12-28T07:27:42;100838.31;;;7.35;77.16
74790;BME280;63318;52.406;13.416;2023-12-28T07:30:12;100837.66;;;7.36;77.10
74790;BME280;63318;52.406;13.416;2023-12-28T07:32:40;100836.93;;;7.35;77.11
74790;BME280;63318;52.406;13.416;2023-12-28T07:35:10;100835.63;;;7.36;77.43
74790;BME280;63318;52.406;13.416;2023-12-28T07:37:38;100833.80;;;7.36;77.26
74790;BME280;63318;52.406;13.416;2023-12-28T07:40:09;100839.84;;;7.37;77.51
74790;BME280;63318;52.406;13.416;2023-12-28T07:42:37;100842.83;;;7.38;77.46
74790;BME280;63318;52.406;13.416;2023-12-28T07:45:06;100845.48;;;7.38;77.37
74790;BME280;63318;52.406;13.416;2023-12-28T07:47:35;100847.44;;;7.39;77.62
74790;BME280;63318;52.406;13.416;2023-12-28T07:50:04;100859.11;;;7.40;77.95
74790;BME280;63318;52.406;13.416;2023-12-28T07:52:33;100864.17;;;7.39;77.83
74790;BME280;63318;52.406;13.416;2023-12-28T07:55:01;100869.91;;;7.38;77.93
74790;BME280;63318;52.406;13.416;2023-12-28T07:57:30;100871.56;;;7.37;77.82
74790;BME280;63318;52.406;13.416;2023-12-28T07:59:58;100872.09;;;7.36;77.94
74790;BME280;63318;52.406;13.416;2023-12-28T08:02:26;100880.02;;;7.34;78.18
74790;BME280;63318;52.406;13.416;2023-12-28T08:04:55;100879.49;;;7.36;78.10
74790;BME280;63318;52.406;13.416;2023-12-28T08:07:23;100887.35;;;7.36;78.18
74790;BME280;63318;52.406;13.416;2023-12-28T08:09:52;100878.88;;;7.36;78.31
74790;BME280;63318;52.406;13.416;2023-12-28T08:12:20;100882.16;;;7.37;78.11
74790;BME280;63318;52.406;13.416;2023-12-28T08:14:49;100886.08;;;7.39;77.98
74790;BME280;63318;52.406;13.416;2023-12-28T08:17:17;100895.05;;;7.43;78.17
74790;BME280;63318;52.406;13.416;2023-12-28T08:19:46;100898.56;;;7.45;78.39
74790;BME280;63318;52.406;13.416;2023-12-28T08:22:14;100902.05;;;7.46;78.30
74790;BME280;63318;52.406;13.416;2023-12-28T08:24:43;100910.39;;;7.48;78.06
74790;BME280;63318;52.406;13.416;2023-12-28T08:27:11;100913.45;;;7.49;78.25
74790;BME280;63318;52.406;13.416;2023-12-28T08:29:41;100915.45;;;7.51;78.20
74790;BME280;63318;52.406;13.416;2023-12-28T08:32:15;100919.79;;;7.51;78.33
74790;BME280;63318;52.406;13.416;2023-12-28T08:34:46;100914.42;;;7.51;78.23
74790;BME280;63318;52.406;13.416;2023-12-28T08:37:15;100914.52;;;7.51;78.40
74790;BME280;63318;52.406;13.416;2023-12-28T08:39:43;100911.36;;;7.50;78.54
74790;BME280;63318;52.406;13.416;2023-12-28T08:42:12;100913.66;;;7.48;78.54
74790;BME280;63318;52.406;13.416;2023-12-28T08:44:41;100910.27;;;7.48;78.65
74790;BME280;63318;52.406;13.416;2023-12-28T08:47:09;100909.90;;;7.49;78.23
74790;BME280;63318;52.406;13.416;2023-12-28T08:49:38;100913.38;;;7.51;78.37
74790;BME280;63318;52.406;13.416;2023-12-28T08:52:06;100918.07;;;7.54;78.30
74790;BME280;63318;52.406;13.416;2023-12-28T08:54:36;100917.50;;;7.56;78.13
74790;BME280;63318;52.406;13.416;2023-12-28T08:57:04;100916.39;;;7.60;77.77
74790;BME280;63318;52.406;13.416;2023-12-28T08:59:33;100915.17;;;7.62;78.14
74790;BME280;63318;52.406;13.416;2023-12-28T09:02:04;100918.52;;;7.65;77.71
74790;BME280;63318;52.406;13.416;2023-12-28T09:04:33;100918.50;;;7.66;77.98
74790;BME280;63318;52.406;13.416;2023-12-28T09:07:02;100924.73;;;7.68;77.99
74790;BME280;63318;52.406;13.416;2023-12-28T09:09:30;100929.96;;;7.70;77.90
74790;BME280;63318;52.406;13.416;2023-12-28T09:11:59;100934.08;;;7.72;77.78
74790;BME280;63318;52.406;13.416;2023-12-28T09:14:27;100941.13;;;7.74;77.57
74790;BME280;63318;52.406;13.416;2023-12-28T09:16:55;100945.60;;;7.77;77.72
74790;BME280;63318;52.406;13.416;2023-12-28T09:19:24;100945.67;;;7.78;77.71
74790;BME280;63318;52.406;13.416;2023-12-28T09:21:52;100948.02;;;7.78;77.83
74790;BME280;63318;52.406;13.416;2023-12-28T09:24:21;100943.80;;;7.78;77.99
74790;BME280;63318;52.406;13.416;2023-12-28T09:26:49;100939.77;;;7.78;77.96
74790;BME280;63318;52.406;13.416;2023-12-28T09:29:17;100941.78;;;7.80;77.91
74790;BME280;63318;52.406;13.416;2023-12-28T09:31:47;100936.25;;;7.83;77.65
74790;BME280;63318;52.406;13.416;2023-12-28T09:34:15;100936.34;;;7.84;77.94
74790;BME280;63318;52.406;13.416;2023-12-28T09:36:43;100937.41;;;7.86;77.38
74790;BME280;63318;52.406;13.416;2023-12-28T09:39:12;100927.02;;;7.90;77.59
74790;BME280;63318;52.406;13.416;2023-12-28T09:41:46;100926.56;;;7.93;77.53
74790;BME280;63318;52.406;13.416;2023-12-28T09:44:18;100920.39;;;7.95;77.49
74790;BME280;63318;52.406;13.416;2023-12-28T09:46:46;100917.21;;;7.96;77.69
74790;BME280;63318;52.406;13.416;2023-12-28T09:49:15;100919.56;;;7.97;77.50
74790;BME280;63318;52.406;13.416;2023-12-28T09:51:44;100922.71;;;7.97;77.42
74790;BME280;63318;52.406;13.416;2023-12-28T09:54:14;100918.11;;;7.97;77.60
74790;BME280;63318;52.406;13.416;2023-12-28T09:56:43;100919.27;;;7.97;77.70
74790;BME280;63318;52.406;13.416;2023-12-28T09:59:13;100918.55;;;7.96;77.83
74790;BME280;63318;52.406;13.416;2023-12-28T10:01:48;100921.11;;;7.95;77.99
74790;BME280;63318;52.406;13.416;2023-12-28T10:04:18;100920.66;;;7.94;77.91
74790;BME280;63318;52.406;13.416;2023-12-28T10:06:47;100923.25;;;7.93;78.11
74790;BME280;63318;52.406;13.416;2023-12-28T10:09:15;100924.23;;;7.92;78.05
74790;BME280;63318;52.406;13.416;2023-12-28T10:11:44;100925.08;;;7.93;78.03
74790;BME280;63318;52.406;13.416;2023-12-28T10:14:13;100923.63;;;7.93;78.02
74790;BME280;63318;52.406;13.416;2023-12-28T10:16:43;100919.35;;;7.94;77.94
74790;BME280;63318;52.406;13.416;2023-12-28T10:19:12;100919.42;;;7.96;78.31
74790;BME280;63318;52.406;13.416;2023-12-28T10:21:44;100920.54;;;7.96;78.18
74790;BME280;63318;52.406;13.416;2023-12-28T10:24:13;100922.80;;;7.96;78.31
74790;BME280;63318;52.406;13.416;2023-12-28T10:26:43;100914.94;;;7.95;78.25
74790;BME280;63318;52.406;13.416;2023-12-28T10:29:14;100914.38;;;7.95;78.19
74790;BME280;63318;52.406;13.416;2023-12-28T10:31:44;100916.03;;;7.95;78.29
74790;BME280;63318;52.406;13.416;2023-12-28T10:34:13;100909.05;;;7.96;78.26
74790;BME280;63318;52.406;13.416;2023-12-28T10:36:42;100906.52;;;7.98;78.40
74790;BME280;63318;52.406;13.416;2023-12-28T10:39:11;100909.98;;;8.01;78.33
74790;BME280;63318;52.406;13.416;2023-12-28T10:41:43;100914.48;;;8.06;78.29
74790;BME280;63318;52.406;13.416;2023-12-28T10:44:19;100909.84;;;8.13;78.32
74790;BME280;63318;52.406;13.416;2023-12-28T10:46:50;100906.09;;;8.21;78.14
74790;BME280;63318;52.406;13.416;2023-12-28T10:49:21;100907.34;;;8.29;77.71
74790;BME280;63318;52.406;13.416;2023-12-28T10:51:53;100908.33;;;8.36;77.76
74790;BME280;63318;52.406;13.416;2023-12-28T10:54:32;100908.33;;;8.44;76.94
74790;BME280;63318;52.406;13.416;2023-12-28T10:57:08;100907.06;;;8.53;77.15
74790;BME280;63318;52.406;13.416;2023-12-28T10:59:46;100904.09;;;8.59;77.00
74790;BME280;63318;52.406;13.416;2023-12-28T11:02:21;100905.16;;;8.64;76.69
74790;BME280;63318;52.406;13.416;2023-12-28T11:04:52;100903.83;;;8.69;76.62
74790;BME280;63318;52.406;13.416;2023-12-28T11:07:22;100899.40;;;8.73;76.72
74790;BME280;63318;52.406;13.416;2023-12-28T11:09:53;100904.54;;;8.76;76.74
74790;BME280;63318;52.406;13.416;2023-12-28T11:12:22;100906.35;;;8.80;76.44
74790;BME280;63318;52.406;13.416;2023-12-28T11:14:52;100897.45;;;8.84;76.12
74790;BME280;63318;52.406;13.416;2023-12-28T11:17:22;100897.15;;;8.89;76.34
74790;BME280;63318;52.406;13.416;2023-12-28T11:19:52;100900.86;;;8.92;76.31
74790;BME280;63318;52.406;13.416;2023-12-28T11:22:21;100905.59;;;8.94;76.59
74790;BME280;63318;52.406;13.416;2023-12-28T11:24:53;100903.70;;;8.95;76.09
74790;BME280;63318;52.406;13.416;2023-12-28T11:27:22;100893.76;;;8.97;76.24
74790;BME280;63318;52.406;13.416;2023-12-28T11:29:51;100893.52;;;9.00;75.83
74790;BME280;63318;52.406;13.416;2023-12-28T11:32:21;100901.95;;;9.05;75.60
74790;BME280;63318;52.406;13.416;2023-12-28T11:34:57;100898.59;;;9.09;76.10
74790;BME280;63318;52.406;13.416;2023-12-28T11:37:27;100893.20;;;9.10;76.12
74790;BME280;63318;52.406;13.416;2023-12-28T11:39:57;100891.30;;;9.11;76.09
74790;BME280;63318;52.406;13.416;2023-12-28T11:42:26;100892.42;;;9.12;76.21
74790;BME280;63318;52.406;13.416;2023-12-28T11:44:57;100898.38;;;9.15;75.72
74790;BME280;63318;52.406;13.416;2023-12-28T11:47:27;100892.53;;;9.18;75.99
74790;BME280;63318;52.406;13.416;2023-12-28T11:49:56;100890.25;;;9.21;75.97
74790;BME280;63318;52.406;13.416;2023-12-28T11:52:34;100888.87;;;9.22;75.96
74790;BME280;63318;52.406;13.416;2023-12-28T11:55:04;100885.13;;;9.24;75.87
74790;BME280;63318;52.406;13.416;2023-12-28T11:57:34;100875.80;;;9.24;75.65
74790;BME280;63318;52.406;13.416;2023-12-28T12:00:07;100873.81;;;9.24;75.67
74790;BME280;63318;52.406;13.416;2023-12-28T12:02:35;100860.51;;;9.25;75.20
74790;BME280;63318;52.406;13.416;2023-12-28T12:05:05;100847.38;;;9.25;75.73
74790;BME280;63318;52.406;13.416;2023-12-28T12:07:34;100835.68;;;9.26;75.14
74790;BME280;63318;52.406;13.416;2023-12-28T12:10:05;100840.08;;;9.27;75.46
74790;BME280;63318;52.406;13.416;2023-12-28T12:12:34;100829.06;;;9.28;74.77
74790;BME280;63318;52.406;13.416;2023-12-28T12:15:04;100822.88;;;9.31;75.01
74790;BME280;63318;52.406;13.416;2023-12-28T12:17:34;100819.66;;;9.32;75.32
74790;BME280;63318;52.406;13.416;2023-12-28T12:20:03;100814.55;;;9.32;74.91
74790;BME280;63318;52.406;13.416;2023-12-28T12:22:33;100822.34;;;9.33;74.99
74790;BME280;63318;52.406;13.416;2023-12-28T12:25:03;100827.56;;;9.35;75.37
74790;BME280;63318;52.406;13.416;2023-12-28T12:27:33;100821.43;;;9.37;75.02
74790;BME280;63318;52.406;13.416;2023-12-28T12:30:02;100831.27;;;9.40;74.54
74790;BME280;63318;52.406;13.416;2023-12-28T12:32:31;100831.79;;;9.42;74.72
74790;BME280;63318;52.406;13.416;2023-12-28T12:35:00;100831.08;;;9.44;74.80
74790;BME280;63318;52.406;13.416;2023-12-28T12:37:30;100838.52;;;9.46;74.54
74790;BME280;63318;52.406;13.416;2023-12-28T12:39:59;100844.24;;;9.47;74.63
74790;BME280;63318;52.406;13.416;2023-12-28T12:42:27;100843.31;;;9.49;74.69
74790;BME280;63318;52.406;13.416;2023-12-28T12:44:58;100837.64;;;9.52;74.60
74790;BME280;63318;52.406;13.416;2023-12-28T12:47:33;100829.94;;;9.54;74.36
74790;BME280;63318;52.406;13.416;2023-12-28T12:50:02;100831.21;;;9.55;74.45
74790;BME280;63318;52.406;13.416;2023-12-28T12:52:31;100832.89;;;9.55;74.90
74790;BME280;63318;52.406;13.416;2023-12-28T12:55:00;100827.99;;;9.54;74.82
74790;BME280;63318;52.406;13.416;2023-12-28T12:57:29;100827.49;;;9.55;74.32
74790;BME280;63318;52.406;13.416;2023-12-28T12:59:58;100826.42;;;9.57;74.43